createdAt,value
2018-07-24T05:44:54.300Z,76.6
2018-07-24T05:45:14.458Z,76.5
2018-07-24T05:45:34.609Z,76.8
2018-07-24T05:45:54.802Z,76.6
2018-07-24T05:46:14.958Z,76.5
2018-07-24T05:46:35.104Z,76.7
2018-07-24T05:46:55.241Z,76.7
2018-07-24T05:47:15.448Z,76.5
2018-07-24T05:47:35.626Z,76.5
2018-07-24T05:47:55.802Z,76.7
2018-07-24T05:48:15.949Z,76
2018-07-24T05:48:36.192Z,76.4
2018-07-24T05:48:56.387Z,76.5
2018-07-24T05:49:16.570Z,76.6
2018-07-24T05:49:36.736Z,76.4
2018-07-24T05:49:56.936Z,76.4
2018-07-24T05:50:17.114Z,76.9
2018-07-24T05:50:37.299Z,76.9
2018-07-24T05:50:57.431Z,76.6
2018-07-24T05:51:17.587Z,76.6
2018-07-24T05:51:37.733Z,76.5
2018-07-24T05:51:57.910Z,76.2
2018-07-24T05:52:18.082Z,76.7
2018-07-24T05:52:38.284Z,76.4
2018-07-24T05:52:58.413Z,76.7
2018-07-24T05:53:18.531Z,76.6
2018-07-24T05:53:38.707Z,76.1
2018-07-24T05:53:58.862Z,75.8
2018-07-24T05:54:19.050Z,76.1
2018-07-24T05:54:39.211Z,75.8
2018-07-24T05:54:59.383Z,76.3
2018-07-24T05:55:19.566Z,76
2018-07-24T05:55:39.727Z,76.1
2018-07-24T05:55:59.867Z,75.7
2018-07-24T05:56:20.036Z,75.9
2018-07-24T05:56:40.222Z,76.3
2018-07-24T05:57:00.393Z,76.3
2018-07-24T05:57:20.550Z,75.9
2018-07-24T05:57:40.706Z,76.2
2018-07-24T05:58:00.894Z,76.1
2018-07-24T05:58:21.069Z,75.7
2018-07-24T05:58:41.245Z,75.2
2018-07-24T05:59:01.415Z,75.8
2018-07-24T05:59:21.541Z,75.3
2018-07-24T05:59:41.708Z,75.5
2018-07-24T06:00:01.931Z,75.8
2018-07-24T06:00:22.160Z,75.9
2018-07-24T06:00:42.342Z,76
2018-07-24T06:01:02.531Z,75.6
2018-07-24T06:01:22.692Z,75.6
2018-07-24T06:01:42.861Z,75.7
2018-07-24T06:02:03.146Z,75.7
2018-07-24T06:02:23.379Z,75.9
2018-07-24T06:02:43.538Z,75.6
2018-07-24T06:03:03.690Z,75.1
2018-07-24T06:03:23.853Z,75.4
2018-07-24T06:03:44.020Z,76
2018-07-24T06:04:04.208Z,75.2
2018-07-24T06:04:24.429Z,75.2
2018-07-24T06:04:44.575Z,75.1
2018-07-24T06:05:04.738Z,75.4
2018-07-24T06:05:24.868Z,75.2
2018-07-24T06:05:45.026Z,75.2
2018-07-24T06:06:05.223Z,74.9
2018-07-24T06:06:25.337Z,74.7
2018-07-24T06:06:45.516Z,75
2018-07-24T06:07:05.687Z,75
2018-07-24T06:07:25.886Z,74.8
2018-07-24T06:07:46.013Z,74.7
2018-07-24T06:08:06.192Z,74.8
2018-07-24T06:08:26.340Z,74.7
2018-07-24T06:08:46.494Z,74.6
2018-07-24T06:09:06.652Z,75.3
2018-07-24T06:09:26.782Z,74.9
2018-07-24T06:09:46.934Z,74.6
2018-07-24T06:10:07.141Z,74.6
2018-07-24T06:10:27.292Z,74.4
2018-07-24T06:10:47.464Z,74.6
2018-07-24T06:11:07.639Z,74.2
2018-07-24T06:11:27.789Z,74.1
2018-07-24T06:11:47.952Z,74.7
2018-07-24T06:12:08.103Z,74.6
2018-07-24T06:12:28.287Z,74.5
2018-07-24T06:12:48.451Z,74.8
2018-07-24T06:13:08.671Z,74.8
2018-07-24T06:13:28.836Z,74
2018-07-24T06:13:49.001Z,74
2018-07-24T06:14:09.160Z,73.8
2018-07-24T06:14:29.384Z,73.9
2018-07-24T06:14:49.446Z,73.1
2018-07-24T06:15:09.644Z,73
2018-07-24T06:15:29.789Z,73.2
2018-07-24T06:15:49.943Z,73.3
2018-07-24T06:16:10.118Z,73.4
2018-07-24T06:16:30.329Z,73.7
2018-07-24T06:16:50.600Z,73.6
2018-07-24T06:17:10.902Z,73.5
2018-07-24T06:17:31.064Z,73.3
2018-07-24T06:17:51.216Z,73
2018-07-24T06:18:11.383Z,73.1
2018-07-24T06:18:31.541Z,73
2018-07-24T06:18:51.701Z,73.2
2018-07-24T06:19:11.871Z,73.1
2018-07-24T06:19:32.040Z,73.1
2018-07-24T06:19:52.195Z,72.6
2018-07-24T06:20:12.348Z,72.5
2018-07-24T06:20:32.509Z,72.3
2018-07-24T06:20:52.712Z,72.4
2018-07-24T06:21:12.849Z,71.9
2018-07-24T06:21:33.002Z,71.6
2018-07-24T06:21:53.236Z,71.2
2018-07-24T06:22:13.359Z,72
2018-07-24T06:22:33.598Z,72.2
2018-07-24T06:22:53.791Z,72
2018-07-24T06:23:13.950Z,71.9
2018-07-24T06:23:34.166Z,72
2018-07-24T06:23:54.275Z,72.4
2018-07-24T06:24:14.440Z,72.1
2018-07-24T06:24:34.608Z,72.1
2018-07-24T06:24:54.764Z,72.3
2018-07-24T06:25:14.942Z,72.1
2018-07-24T06:25:35.102Z,72.2
2018-07-24T06:25:55.255Z,72.1
2018-07-24T06:26:15.419Z,72.1
2018-07-24T06:26:35.578Z,72.3
2018-07-24T06:26:55.729Z,72.6
2018-07-24T06:27:15.910Z,72.7
2018-07-24T06:27:36.058Z,72.5
2018-07-24T06:27:56.209Z,72.3
2018-07-24T06:28:16.362Z,72.6
2018-07-24T06:28:36.531Z,72.3
2018-07-24T06:28:56.700Z,72.7
2018-07-24T06:29:16.895Z,72.8
2018-07-24T06:29:37.003Z,72.6
2018-07-24T06:29:57.188Z,72.5
2018-07-24T06:30:17.339Z,72.8
2018-07-24T06:30:37.506Z,72.1
2018-07-24T06:30:57.682Z,71.3
2018-07-24T06:31:17.830Z,71
2018-07-24T06:31:37.988Z,70.6
2018-07-24T06:31:58.138Z,70.9
2018-07-24T06:32:18.289Z,70.8
2018-07-24T06:32:38.453Z,70.2
2018-07-24T06:32:58.596Z,70.1
2018-07-24T06:33:18.806Z,70.1
2018-07-24T06:33:38.953Z,70
2018-07-24T06:33:59.076Z,70.3
2018-07-24T06:34:19.260Z,70
2018-07-24T06:34:39.403Z,69.5
2018-07-24T06:34:59.579Z,70.3
2018-07-24T06:35:19.731Z,70.6
2018-07-24T06:35:39.918Z,70.4
2018-07-24T06:36:00.087Z,70.9
2018-07-24T06:36:20.241Z,71.3
2018-07-24T06:36:40.399Z,71.3
2018-07-24T06:37:00.563Z,71.6
2018-07-24T06:37:20.753Z,71.4
2018-07-24T06:37:40.929Z,71.4
2018-07-24T06:38:01.077Z,70.9
2018-07-24T06:38:21.250Z,70.3
2018-07-24T06:38:41.431Z,70.3
2018-07-24T06:39:01.580Z,70.2
2018-07-24T06:39:21.757Z,70.5
2018-07-24T06:39:41.993Z,70.6
2018-07-24T06:40:02.149Z,70.5
2018-07-24T06:40:22.302Z,71
2018-07-24T06:40:42.516Z,71.2
2018-07-24T06:41:02.692Z,70.6
2018-07-24T06:41:22.878Z,71
2018-07-24T06:41:43.061Z,70.4
2018-07-24T06:42:03.219Z,70.6
2018-07-24T06:42:23.375Z,70.3
2018-07-24T06:42:43.583Z,71.1
2018-07-24T06:43:03.731Z,70.7
2018-07-24T06:43:23.894Z,70.4
2018-07-24T06:43:44.053Z,70.1
2018-07-24T06:44:04.234Z,70
2018-07-24T06:44:24.479Z,69.5
2018-07-24T06:44:44.599Z,69.8
2018-07-24T06:45:04.724Z,69.9
2018-07-24T06:45:24.890Z,69.9
2018-07-24T06:45:45.100Z,69.8
2018-07-24T06:46:05.260Z,69.8
2018-07-24T06:46:25.434Z,69.4
2018-07-24T06:46:45.614Z,69
2018-07-24T06:47:05.775Z,69.4
2018-07-24T06:47:25.943Z,69.4
2018-07-24T06:47:46.112Z,69.8
2018-07-24T06:48:06.268Z,69
2018-07-24T06:48:26.404Z,68.8
2018-07-24T06:48:46.584Z,68.5
2018-07-24T06:49:06.739Z,67.8
2018-07-24T06:49:26.910Z,67.9
2018-07-24T06:49:47.073Z,68.1
2018-07-24T06:50:07.227Z,68.5
2018-07-24T06:50:27.405Z,68.2
2018-07-24T06:50:47.562Z,68.2
2018-07-24T06:51:07.720Z,68.2
2018-07-24T06:51:28.012Z,68.4
2018-07-24T06:51:48.336Z,67.8
2018-07-24T06:52:08.465Z,68.2
2018-07-24T06:52:28.639Z,67.8
2018-07-24T06:52:48.827Z,67.7
2018-07-24T06:53:08.987Z,67.6
2018-07-24T06:53:29.150Z,66.9
2018-07-24T06:53:49.362Z,67
2018-07-24T06:54:09.528Z,66.8
2018-07-24T06:54:29.697Z,66.1
2018-07-24T06:54:49.885Z,66.4
2018-07-24T06:55:10.062Z,66.9
2018-07-24T06:55:30.227Z,67
2018-07-24T06:55:50.437Z,66.9
2018-07-24T06:56:10.588Z,66.9
2018-07-24T06:56:30.741Z,66.9
2018-07-24T06:56:50.873Z,67.3
2018-07-24T06:57:11.045Z,67
2018-07-24T06:57:31.197Z,66.8
2018-07-24T06:57:51.360Z,66.6
2018-07-24T06:58:11.513Z,65.9
2018-07-24T06:58:31.663Z,66.3
2018-07-24T06:58:51.861Z,65.9
2018-07-24T06:59:12.021Z,66.2
2018-07-24T06:59:32.185Z,66.1
2018-07-24T06:59:52.346Z,67.1
2018-07-24T07:00:12.496Z,67.9
2018-07-24T07:00:32.689Z,66.8
2018-07-24T07:00:52.842Z,67
2018-07-24T07:01:12.989Z,66.7
2018-07-24T07:01:33.153Z,66.3
2018-07-24T07:01:53.323Z,66.4
2018-07-24T07:02:13.656Z,66.4
2018-07-24T07:02:33.734Z,65.9
2018-07-24T07:02:53.892Z,65.7
2018-07-24T07:03:14.070Z,65.8
2018-07-24T07:03:34.222Z,65.4
2018-07-24T07:03:54.376Z,65.9
2018-07-24T07:04:14.527Z,65.5
2018-07-24T07:04:34.705Z,65.9
2018-07-24T07:04:54.899Z,65.2
2018-07-24T07:05:15.136Z,65.5
2018-07-24T07:05:35.310Z,65.5
2018-07-24T07:05:55.460Z,65.5
2018-07-24T07:06:15.629Z,65.4
2018-07-24T07:06:35.856Z,65.3
2018-07-24T07:06:56.019Z,64.5
2018-07-24T07:07:16.219Z,64.2
2018-07-24T07:07:36.402Z,63.2
2018-07-24T07:07:56.538Z,63.4
2018-07-24T07:08:16.675Z,63.8
2018-07-24T07:08:36.860Z,63.8
2018-07-24T07:08:57.024Z,64.1
2018-07-24T07:09:17.181Z,63.7
2018-07-24T07:09:37.354Z,63
2018-07-24T07:09:57.525Z,63
2018-07-24T07:10:17.779Z,63.4
2018-07-24T07:10:37.895Z,63
2018-07-24T07:10:58.064Z,63.9
2018-07-24T07:11:18.231Z,64
2018-07-24T07:11:38.391Z,63.2
2018-07-24T07:11:58.547Z,63
2018-07-24T07:12:18.711Z,63
2018-07-24T07:12:38.883Z,62.8
2018-07-24T07:12:59.100Z,63.2
2018-07-24T07:13:19.292Z,63
2018-07-24T07:13:39.425Z,63
2018-07-24T07:13:59.604Z,63
2018-07-24T07:14:19.783Z,63.7
2018-07-24T07:14:39.936Z,63.1
2018-07-24T07:15:00.076Z,63.7
2018-07-24T07:15:20.222Z,63.3
2018-07-24T07:15:40.394Z,63.9
2018-07-24T07:16:00.543Z,63.3
2018-07-24T07:16:20.771Z,63.8
2018-07-24T07:16:40.864Z,64.1
2018-07-24T07:17:01.049Z,63.5
2018-07-24T07:17:21.207Z,63.8
2018-07-24T07:17:41.390Z,63.9
2018-07-24T07:18:01.592Z,63.7
2018-07-24T07:18:21.780Z,64.1
2018-07-24T07:18:41.962Z,63.9
2018-07-24T07:19:02.120Z,63.3
2018-07-24T07:19:22.307Z,62.6
2018-07-24T07:19:42.472Z,63.2
2018-07-24T07:20:02.664Z,62.7
2018-07-24T07:20:22.853Z,62.2
2018-07-24T07:20:43.175Z,62.4
2018-07-24T07:21:03.332Z,63.3
2018-07-24T07:21:23.497Z,62.7
2018-07-24T07:21:43.722Z,62.2
2018-07-24T07:22:03.921Z,62
2018-07-24T07:22:24.122Z,62.3
2018-07-24T07:22:44.333Z,62.7
2018-07-24T07:23:04.491Z,62.2
2018-07-24T07:23:24.699Z,61.9
2018-07-24T07:23:44.927Z,62.5
2018-07-24T07:24:05.076Z,62.3
2018-07-24T07:24:25.248Z,62.1
2018-07-24T07:24:45.401Z,62.9
2018-07-24T07:25:05.561Z,62.6
2018-07-24T07:25:26.063Z,63
2018-07-24T07:25:45.869Z,62.3
2018-07-24T07:26:06.043Z,61.9
2018-07-24T07:26:26.217Z,61.3
2018-07-24T07:26:46.395Z,60.7
2018-07-24T07:27:06.541Z,60.6
2018-07-24T07:27:26.704Z,60.7
2018-07-24T07:27:46.875Z,61.1
2018-07-24T07:28:07.034Z,60.7
2018-07-24T07:28:27.206Z,60.9
2018-07-24T07:28:47.375Z,62.1
2018-07-24T07:29:07.586Z,61.8
2018-07-24T07:29:27.724Z,62.1
2018-07-24T07:29:47.920Z,61.7
2018-07-24T07:30:08.094Z,61.6
2018-07-24T07:30:28.250Z,61.9
2018-07-24T07:30:48.400Z,61.2
2018-07-24T07:31:08.546Z,61.7
2018-07-24T07:31:28.722Z,62
2018-07-24T07:31:48.890Z,62
2018-07-24T07:32:09.066Z,62
2018-07-24T07:32:29.263Z,61.9
2018-07-24T07:32:49.380Z,61.2
2018-07-24T07:33:09.529Z,60.9
2018-07-24T07:33:29.692Z,60.8
2018-07-24T07:33:49.899Z,61.3
2018-07-24T07:34:10.026Z,61.1
2018-07-24T07:34:30.207Z,61.3
2018-07-24T07:34:50.381Z,60.9
2018-07-24T07:35:10.561Z,61.1
2018-07-24T07:35:30.753Z,60.7
2018-07-24T07:35:50.922Z,60.5
2018-07-24T07:36:11.133Z,60.6
2018-07-24T07:36:31.291Z,60.2
2018-07-24T07:36:51.443Z,60.2
2018-07-24T07:37:11.678Z,60.1
2018-07-24T07:37:31.877Z,60.2
2018-07-24T07:37:52.048Z,60.3
2018-07-24T07:38:12.226Z,60.3
2018-07-24T07:38:32.384Z,60.6
2018-07-24T07:38:52.636Z,60.7
2018-07-24T07:39:12.974Z,60.9
2018-07-24T07:39:33.080Z,60.5
2018-07-24T07:39:53.244Z,60.1
2018-07-24T07:40:13.383Z,59.5
2018-07-24T07:40:33.573Z,59.8
2018-07-24T07:40:53.725Z,59.9
2018-07-24T07:41:13.917Z,60.7
2018-07-24T07:41:34.090Z,60.5
2018-07-24T07:41:54.228Z,60.8
2018-07-24T07:42:14.390Z,61.4
2018-07-24T07:42:34.557Z,60.6
2018-07-24T07:42:54.763Z,60.7
2018-07-24T07:43:14.945Z,61
2018-07-24T07:43:35.117Z,60.4
2018-07-24T07:43:55.294Z,61
2018-07-24T07:44:15.456Z,61
2018-07-24T07:44:35.660Z,61
2018-07-24T07:44:55.841Z,61.2
2018-07-24T07:45:16.077Z,61.1
2018-07-24T07:45:36.215Z,61
2018-07-24T07:45:56.402Z,61.1
2018-07-24T07:46:16.563Z,61
2018-07-24T07:46:36.782Z,61
2018-07-24T07:46:56.958Z,60.9
2018-07-24T07:47:17.161Z,60.8
2018-07-24T07:47:37.333Z,60.3
2018-07-24T07:47:57.482Z,59.9
2018-07-24T07:48:17.632Z,59.1
2018-07-24T07:48:37.797Z,58.1
2018-07-24T07:48:57.963Z,58
2018-07-24T07:49:18.143Z,58.2
2018-07-24T07:49:38.338Z,57.9
2018-07-24T07:49:58.501Z,58.1
2018-07-24T07:50:18.649Z,58
2018-07-24T07:50:38.808Z,58
2018-07-24T07:50:58.982Z,58.2
2018-07-24T07:51:19.119Z,58.7
2018-07-24T07:51:39.283Z,59.1
2018-07-24T07:51:59.458Z,59.5
2018-07-24T07:52:19.628Z,59
2018-07-24T07:52:39.811Z,59.2
2018-07-24T07:52:59.988Z,59.6
2018-07-24T07:53:20.156Z,59
2018-07-24T07:53:40.330Z,58.8
2018-07-24T07:54:00.515Z,58.6
2018-07-24T07:54:20.675Z,58.1
2018-07-24T07:54:40.811Z,57.8
2018-07-24T07:55:00.976Z,57.6
2018-07-24T07:55:21.168Z,57.8
2018-07-24T07:55:41.316Z,57.8
2018-07-24T07:56:01.501Z,58.1
2018-07-24T07:56:21.681Z,58.5
2018-07-24T07:56:41.875Z,58.7
2018-07-24T07:57:02.037Z,59.1
2018-07-24T07:57:22.205Z,58.9
2018-07-24T07:57:42.377Z,58.8
2018-07-24T07:58:02.546Z,58.9
2018-07-24T07:58:22.731Z,58.9
2018-07-24T07:58:42.927Z,58.7
2018-07-24T07:59:03.082Z,58.5
2018-07-24T07:59:23.253Z,58.4
2018-07-24T07:59:43.431Z,57.3
2018-07-24T08:00:03.582Z,58.2
2018-07-24T08:00:23.747Z,58.6
2018-07-24T08:00:43.941Z,59.3
2018-07-24T08:01:04.122Z,59
2018-07-24T08:01:24.283Z,59
2018-07-24T08:01:44.455Z,58.7
2018-07-24T08:02:04.601Z,58.8
2018-07-24T08:02:24.807Z,58.8
2018-07-24T08:02:45.050Z,58.7
2018-07-24T08:03:05.214Z,58.9
2018-07-24T08:03:25.364Z,58.3
2018-07-24T08:03:45.528Z,57.9
2018-07-24T08:04:05.686Z,58.9
2018-07-24T08:04:26.010Z,58.7
2018-07-24T08:04:46.044Z,58.8
2018-07-24T08:05:06.206Z,58.9
2018-07-24T08:05:26.367Z,58.9
2018-07-24T08:05:46.521Z,58.5
2018-07-24T08:06:06.706Z,58.5
2018-07-24T08:06:26.895Z,59
2018-07-24T08:06:47.065Z,58.7
2018-07-24T08:07:07.229Z,58.8
2018-07-24T08:07:27.399Z,59
2018-07-24T08:07:47.563Z,58.4
2018-07-24T08:08:07.734Z,57.8
2018-07-24T08:08:27.899Z,59.2
2018-07-24T08:08:48.113Z,58.2
2018-07-24T08:09:08.260Z,58.1
2018-07-24T08:09:28.432Z,58
2018-07-24T08:09:48.606Z,57.9
2018-07-24T08:10:08.777Z,57.8
2018-07-24T08:10:28.913Z,57.9
2018-07-24T08:10:49.072Z,58.1
2018-07-24T08:11:09.233Z,58.2
2018-07-24T08:11:29.420Z,58.2
2018-07-24T08:11:49.602Z,58.1
2018-07-24T08:12:09.775Z,58.2
2018-07-24T08:12:30.045Z,58
2018-07-24T08:12:50.096Z,58.1
2018-07-24T08:13:10.276Z,58
2018-07-24T08:13:30.472Z,58.2
2018-07-24T08:13:50.653Z,58.1
2018-07-24T08:14:10.864Z,58.1
2018-07-24T08:14:30.966Z,58.1
2018-07-24T08:14:51.150Z,57.4
2018-07-24T08:15:11.300Z,57.9
2018-07-24T08:15:31.462Z,57.6
2018-07-24T08:15:51.621Z,57.2
2018-07-24T08:16:11.789Z,56.7
2018-07-24T08:16:31.980Z,56.6
2018-07-24T08:16:52.133Z,56.5
2018-07-24T08:17:12.292Z,57.2
2018-07-24T08:17:32.457Z,57.5
2018-07-24T08:17:52.622Z,57.5
2018-07-24T08:18:12.784Z,57.7
2018-07-24T08:18:32.938Z,57.6
2018-07-24T08:18:53.121Z,57.6
2018-07-24T08:19:13.272Z,57.2
2018-07-24T08:19:33.446Z,57.2
2018-07-24T08:19:53.596Z,57.6
2018-07-24T08:20:13.772Z,57.1
2018-07-24T08:20:33.938Z,57.5
2018-07-24T08:20:54.095Z,57.6
2018-07-24T08:21:14.257Z,57.4
2018-07-24T08:21:34.439Z,57.5
2018-07-24T08:21:54.614Z,57.5
2018-07-24T08:22:14.811Z,57.8
2018-07-24T08:22:34.914Z,57.8
2018-07-24T08:22:55.078Z,57.1
2018-07-24T08:23:15.259Z,55.6
2018-07-24T08:23:35.396Z,55
2018-07-24T08:23:55.556Z,55.4
2018-07-24T08:24:15.720Z,54.9
2018-07-24T08:24:35.883Z,54.6
2018-07-24T08:24:56.069Z,54.6
2018-07-24T08:25:16.217Z,54.5
2018-07-24T08:25:36.383Z,54.7
2018-07-24T08:25:56.556Z,54.6
2018-07-24T08:26:16.716Z,54.7
2018-07-24T08:26:36.912Z,56.1
2018-07-24T08:26:57.066Z,55.2
2018-07-24T08:27:17.212Z,55.9
2018-07-24T08:27:37.405Z,55.3
2018-07-24T08:27:57.606Z,55.4
2018-07-24T08:28:17.821Z,55.7
2018-07-24T08:28:37.984Z,55.9
2018-07-24T08:28:58.142Z,56.2
2018-07-24T08:29:18.344Z,55.9
2018-07-24T08:29:38.510Z,56.7
2018-07-24T08:29:58.651Z,56.8
2018-07-24T08:30:18.794Z,56.3
2018-07-24T08:30:38.945Z,56.2
2018-07-24T08:30:59.117Z,56.7
2018-07-24T08:31:19.278Z,57
2018-07-24T08:31:39.437Z,56.1
2018-07-24T08:31:59.598Z,57.1
2018-07-24T08:32:19.779Z,56.8
2018-07-24T08:32:39.972Z,56.6
2018-07-24T08:33:00.117Z,56.7
2018-07-24T08:33:20.265Z,56.7
2018-07-24T08:33:40.476Z,56.8
2018-07-24T08:34:00.629Z,56.7
2018-07-24T08:34:20.783Z,56.7
2018-07-24T08:34:40.923Z,57.9
2018-07-24T08:35:01.096Z,57.8
2018-07-24T08:35:21.256Z,57.2
2018-07-24T08:35:41.441Z,57.4
2018-07-24T08:36:01.610Z,56.8
2018-07-24T08:36:21.772Z,56.8
2018-07-24T08:36:41.947Z,56.3
2018-07-24T08:37:02.131Z,56.6
2018-07-24T08:37:22.285Z,56.6
2018-07-24T08:37:42.447Z,56.6
2018-07-24T08:38:02.600Z,56.6
2018-07-24T08:38:22.807Z,56
2018-07-24T08:38:42.990Z,56.3
2018-07-24T08:39:03.156Z,55.5
2018-07-24T08:39:23.330Z,55.8
2018-07-24T08:39:43.532Z,55.8
2018-07-24T08:40:03.726Z,55.9
2018-07-24T08:40:23.875Z,55.9
2018-07-24T08:40:44.043Z,56
2018-07-24T08:41:04.219Z,56.3
2018-07-24T08:41:24.347Z,56.3
2018-07-24T08:41:44.522Z,56.3
2018-07-24T08:42:04.710Z,56.1
2018-07-24T08:42:24.900Z,55.5
2018-07-24T08:42:45.059Z,55.5
2018-07-24T08:43:05.245Z,55.8
2018-07-24T08:43:25.419Z,55.7
2018-07-24T08:43:45.607Z,55.7
2018-07-24T08:44:05.875Z,55.5
2018-07-24T08:44:26.022Z,56.1
2018-07-24T08:44:46.261Z,55.6
2018-07-24T08:45:06.444Z,55.9
2018-07-24T08:45:26.631Z,56.1
2018-07-24T08:45:46.803Z,55.6
2018-07-24T08:46:06.964Z,55.8
2018-07-24T08:46:27.144Z,55.7
2018-07-24T08:46:47.278Z,55.3
2018-07-24T08:47:07.406Z,54.5
2018-07-24T08:47:27.605Z,54.7
2018-07-24T08:47:47.756Z,54.5
2018-07-24T08:48:07.916Z,54.6
2018-07-24T08:48:28.138Z,54.6
2018-07-24T08:48:48.319Z,54.5
2018-07-24T08:49:08.500Z,55
2018-07-24T08:49:28.685Z,54.8
2018-07-24T08:49:48.815Z,55.1
2018-07-24T08:50:08.975Z,54.6
2018-07-24T08:50:29.177Z,54.5
2018-07-24T08:50:49.331Z,54.9
2018-07-24T08:51:09.487Z,55.8
2018-07-24T08:51:29.655Z,55.3
2018-07-24T08:51:49.830Z,55
2018-07-24T08:52:09.998Z,55.2
2018-07-24T08:52:30.193Z,55.1
2018-07-24T08:52:50.848Z,55.4
2018-07-24T08:53:11.500Z,54.7
2018-07-24T08:53:31.805Z,54.9
2018-07-24T08:53:53.212Z,54.5
2018-07-24T08:54:13.717Z,54.7
2018-07-24T08:54:34.297Z,54.5
2018-07-24T08:54:54.435Z,54.6
2018-07-24T08:55:14.802Z,54.9
2018-07-24T08:55:35.111Z,54.4
2018-07-24T08:55:54.905Z,54.7
2018-07-24T08:56:15.108Z,54.8
2018-07-24T08:56:35.339Z,54.8
2018-07-24T08:56:55.496Z,54.3
2018-07-24T08:57:15.838Z,54.4
2018-07-24T08:57:36.050Z,54.6
2018-07-24T08:57:56.190Z,54.8
2018-07-24T08:58:16.346Z,54.6
2018-07-24T08:58:36.511Z,54.4
2018-07-24T08:58:56.682Z,54.1
2018-07-24T08:59:16.848Z,54.4
2018-07-24T08:59:37.060Z,54
2018-07-24T08:59:57.213Z,53.4
2018-07-24T09:00:17.376Z,52.9
2018-07-24T09:00:37.536Z,52.1
2018-07-24T09:00:57.687Z,51.6
2018-07-24T09:01:17.835Z,51.8
2018-07-24T09:01:37.993Z,51.5
2018-07-24T09:01:58.146Z,52.4
2018-07-24T09:02:18.321Z,52
2018-07-24T09:02:38.490Z,52.1
2018-07-24T09:02:58.685Z,52.2
2018-07-24T09:03:18.941Z,51.9
2018-07-24T09:03:39.079Z,52.3
2018-07-24T09:03:59.254Z,53.1
2018-07-24T09:04:19.459Z,53
2018-07-24T09:04:39.583Z,54
2018-07-24T09:04:59.744Z,53.6
2018-07-24T09:05:19.916Z,54.2
2018-07-24T09:05:40.063Z,53
2018-07-24T09:06:00.215Z,53
2018-07-24T09:06:20.362Z,52.9
2018-07-24T09:06:40.542Z,52.8
2018-07-24T09:07:00.691Z,52.8
2018-07-24T09:07:20.856Z,52.6
2018-07-24T09:07:41.035Z,52.9
2018-07-24T09:08:01.217Z,53.4
2018-07-24T09:08:21.395Z,53.1
2018-07-24T09:08:41.558Z,54.1
2018-07-24T09:09:01.717Z,53.4
2018-07-24T09:09:21.896Z,53.1
2018-07-24T09:09:42.082Z,53.1
2018-07-24T09:10:02.226Z,52.4
2018-07-24T09:10:22.476Z,51.5
2018-07-24T09:10:42.563Z,51.6
2018-07-24T09:11:02.742Z,51.7
2018-07-24T09:11:22.924Z,51.8
2018-07-24T09:11:43.094Z,51.6
2018-07-24T09:12:03.255Z,51.7
2018-07-24T09:12:23.416Z,52.1
2018-07-24T09:12:43.583Z,51.9
2018-07-24T09:13:03.719Z,52.7
2018-07-24T09:13:23.867Z,52.6
2018-07-24T09:13:44.064Z,53
2018-07-24T09:14:04.230Z,51.7
2018-07-24T09:14:24.397Z,51.8
2018-07-24T09:14:44.599Z,51.2
2018-07-24T09:15:04.755Z,51.6
2018-07-24T09:15:24.957Z,51.7
2018-07-24T09:15:45.211Z,51.8
2018-07-24T09:16:05.377Z,51.7
2018-07-24T09:16:25.549Z,51.9
2018-07-24T09:16:45.719Z,51.8
2018-07-24T09:17:05.877Z,51.8
2018-07-24T09:17:26.081Z,51.6
2018-07-24T09:17:46.214Z,51.4
2018-07-24T09:18:06.389Z,51.3
2018-07-24T09:18:26.561Z,51
2018-07-24T09:18:46.732Z,50.9
2018-07-24T09:19:06.902Z,51.1
2018-07-24T09:19:27.099Z,51
2018-07-24T09:19:47.262Z,51.2
2018-07-24T09:20:07.410Z,51.8
2018-07-24T09:20:27.520Z,51.6
2018-07-24T09:20:47.819Z,51.5
2018-07-24T09:21:08.156Z,51.6
2018-07-24T09:21:28.316Z,52.4
2018-07-24T09:21:48.507Z,51.8
2018-07-24T09:22:08.664Z,51.1
2018-07-24T09:22:28.842Z,51.9
2018-07-24T09:22:48.986Z,51.5
2018-07-24T09:23:09.180Z,51.3
2018-07-24T09:23:29.340Z,51.3
2018-07-24T09:23:49.500Z,51.6
2018-07-24T09:24:09.657Z,51.4
2018-07-24T09:24:29.817Z,51.6
2018-07-24T09:24:49.957Z,51.6
2018-07-24T09:25:10.150Z,52.2
2018-07-24T09:25:30.344Z,51.7
2018-07-24T09:25:50.541Z,52
2018-07-24T09:26:10.736Z,52.1
2018-07-24T09:26:30.932Z,53
2018-07-24T09:26:51.113Z,52.9
2018-07-24T09:27:11.233Z,52.4
2018-07-24T09:27:31.389Z,52.6
2018-07-24T09:27:51.539Z,52.9
2018-07-24T09:28:11.688Z,51.8
2018-07-24T09:28:31.862Z,51.9
2018-07-24T09:28:52.060Z,51.8
2018-07-24T09:29:12.223Z,51.6
2018-07-24T09:29:32.381Z,51.6
2018-07-24T09:29:52.580Z,52
2018-07-24T09:30:12.737Z,52.2
2018-07-24T09:30:32.938Z,52
2018-07-24T09:30:53.050Z,52.4
2018-07-24T09:31:13.205Z,52.3
2018-07-24T09:31:33.355Z,51.8
2018-07-24T09:31:53.516Z,51.6
2018-07-24T09:32:13.770Z,51.7
2018-07-24T09:32:33.879Z,51.6
2018-07-24T09:32:54.043Z,50.9
2018-07-24T09:33:14.204Z,50.8
2018-07-24T09:33:34.360Z,51.6
2018-07-24T09:33:54.547Z,51.7
2018-07-24T09:34:14.722Z,51.9
2018-07-24T09:34:34.868Z,52
2018-07-24T09:34:55.039Z,52.3
2018-07-24T09:35:15.220Z,52.2
2018-07-24T09:35:35.436Z,51
2018-07-24T09:35:55.606Z,50.8
2018-07-24T09:36:15.776Z,50.3
2018-07-24T09:36:35.923Z,50.6
2018-07-24T09:36:56.084Z,50.5
2018-07-24T09:37:16.260Z,50.4
2018-07-24T09:37:36.440Z,50.9
2018-07-24T09:37:56.593Z,50.7
2018-07-24T09:38:16.773Z,50.3
2018-07-24T09:38:36.960Z,49.9
2018-07-24T09:38:57.157Z,49.9
2018-07-24T09:39:17.388Z,50.1
2018-07-24T09:39:37.551Z,50.9
2018-07-24T09:39:57.762Z,51
2018-07-24T09:40:17.944Z,50.6
2018-07-24T09:40:38.100Z,50.9
2018-07-24T09:40:58.268Z,50.6
2018-07-24T09:41:18.484Z,50
2018-07-24T09:41:38.673Z,50.2
2018-07-24T09:41:58.820Z,50
2018-07-24T09:42:18.981Z,49.7
2018-07-24T09:42:39.176Z,49.3
2018-07-24T09:42:59.345Z,49
2018-07-24T09:43:19.520Z,48.7
2018-07-24T09:43:39.679Z,49
2018-07-24T09:43:59.866Z,49.1
2018-07-24T09:44:20.083Z,49.2
2018-07-24T09:44:40.282Z,49.6
2018-07-24T09:45:00.453Z,49.8
2018-07-24T09:45:20.600Z,50.2
2018-07-24T09:45:40.764Z,49.9
2018-07-24T09:46:00.924Z,49.9
2018-07-24T09:46:21.068Z,49.9
2018-07-24T09:46:41.275Z,49.3
2018-07-24T09:47:01.429Z,49.3
2018-07-24T09:47:21.582Z,49.8
2018-07-24T09:47:41.722Z,49.8
2018-07-24T09:48:01.899Z,49.9
2018-07-24T09:48:22.073Z,49.6
2018-07-24T09:48:42.249Z,49.4
2018-07-24T09:49:02.403Z,49.9
2018-07-24T09:49:22.577Z,50
2018-07-24T09:49:42.754Z,50.1
2018-07-24T09:50:02.993Z,50.1
2018-07-24T09:50:23.138Z,50
2018-07-24T09:50:43.620Z,49.3
2018-07-24T09:51:03.782Z,49.7
2018-07-24T09:51:23.951Z,49.3
2018-07-24T09:51:44.124Z,49.4
2018-07-24T09:52:04.284Z,49.4
2018-07-24T09:52:24.419Z,49.1
2018-07-24T09:52:44.606Z,49
2018-07-24T09:53:04.775Z,49
2018-07-24T09:53:24.976Z,49.5
2018-07-24T09:53:45.125Z,49.5
2018-07-24T09:54:05.296Z,49.4
2018-07-24T09:54:25.457Z,49.7
2018-07-24T09:54:45.633Z,49.1
2018-07-24T09:55:05.781Z,49.6
2018-07-24T09:55:25.938Z,48.1
2018-07-24T09:55:46.094Z,47.9
2018-07-24T09:56:06.264Z,48
2018-07-24T09:56:26.468Z,47.9
2018-07-24T09:56:46.612Z,48.1
2018-07-24T09:57:06.771Z,47.8
2018-07-24T09:57:26.929Z,47.8
2018-07-24T09:57:47.085Z,47.7
2018-07-24T09:58:07.241Z,47.7
2018-07-24T09:58:27.420Z,47.7
2018-07-24T09:58:47.566Z,47.8
2018-07-24T09:59:07.737Z,47.8
2018-07-24T09:59:27.998Z,48.2
2018-07-24T09:59:48.095Z,49
2018-07-24T10:00:08.288Z,49.1
2018-07-24T10:00:28.539Z,49.3
2018-07-24T10:00:48.776Z,49.7
2018-07-24T10:01:08.939Z,48.8
2018-07-24T10:01:29.107Z,48.3
2018-07-24T10:01:49.316Z,48.6
2018-07-24T10:02:09.465Z,48.7
2018-07-24T10:02:29.613Z,48.6
2018-07-24T10:02:49.773Z,48.9
2018-07-24T10:03:09.946Z,48.4
2018-07-24T10:03:30.138Z,48.2
2018-07-24T10:03:50.315Z,47.7
2018-07-24T10:04:10.488Z,47.5
2018-07-24T10:04:30.664Z,48.2
2018-07-24T10:04:50.830Z,48.8
2018-07-24T10:05:11.017Z,48.6
2018-07-24T10:05:31.220Z,49.1
2018-07-24T10:05:51.339Z,48.2
2018-07-24T10:06:11.541Z,47.8
2018-07-24T10:06:31.696Z,48
2018-07-24T10:06:51.868Z,47.7
2018-07-24T10:07:12.039Z,47.7
2018-07-24T10:07:32.197Z,48.2
2018-07-24T10:07:52.358Z,48.6
2018-07-24T10:08:12.520Z,48.6
2018-07-24T10:08:32.675Z,48.2
2018-07-24T10:08:52.874Z,47.7
2018-07-24T10:09:13.063Z,47.5
2018-07-24T10:09:33.200Z,47.7
2018-07-24T10:09:53.355Z,47.7
2018-07-24T10:10:13.521Z,47.6
2018-07-24T10:10:33.694Z,48.9
2018-07-24T10:10:53.902Z,48.7
2018-07-24T10:11:13.998Z,47.9
2018-07-24T10:11:34.162Z,47.7
2018-07-24T10:11:54.341Z,48
2018-07-24T10:12:14.633Z,48.1
2018-07-24T10:12:34.831Z,48.2
2018-07-24T10:12:55.376Z,48.8
2018-07-24T10:13:15.514Z,48.7
2018-07-24T10:13:35.585Z,48.7
2018-07-24T10:13:55.735Z,49
2018-07-24T10:14:15.901Z,48.1
2018-07-24T10:14:36.043Z,48.3
2018-07-24T10:14:56.208Z,48.2
2018-07-24T10:15:16.355Z,47.6